createdAt,value
2017-11-10T00:00:30.915Z,21.9
2017-11-10T00:01:39.001Z,21.9
2017-11-10T00:02:47.088Z,21.9
2017-11-10T00:03:55.250Z,21.9
2017-11-10T00:05:03.260Z,21.9
2017-11-10T00:06:11.350Z,22.0
2017-11-10T00:07:19.440Z,22.0
2017-11-10T00:08:27.520Z,22.0
2017-11-10T00:09:35.606Z,22.0
2017-11-10T00:10:43.691Z,21.9
2017-11-10T00:11:51.778Z,21.9
2017-11-10T00:12:59.862Z,21.9
2017-11-10T00:14:07.964Z,22.0
2017-11-10T00:15:16.051Z,22.0
2017-11-10T00:16:24.136Z,22.0
2017-11-10T00:17:32.222Z,21.9
2017-11-10T00:18:40.307Z,22.1
2017-11-10T00:19:48.396Z,22.0
2017-11-10T00:20:56.483Z,22.0
2017-11-10T00:22:04.569Z,22.0
2017-11-10T00:23:12.654Z,22.1
2017-11-10T00:24:20.745Z,22.0
2017-11-10T00:25:28.831Z,22.0
2017-11-10T00:26:36.916Z,22.1
2017-11-10T00:27:45.005Z,22.0
2017-11-10T00:28:53.090Z,22.1
2017-11-10T00:30:01.178Z,22.0
2017-11-10T00:31:09.269Z,22.0
2017-11-10T00:32:17.353Z,22.0
2017-11-10T00:33:25.438Z,22.1
2017-11-10T00:34:33.522Z,22.0
2017-11-10T00:35:41.608Z,22.1
2017-11-10T00:36:49.696Z,22.1
2017-11-10T00:37:57.789Z,22.1
2017-11-10T00:39:05.869Z,22.1
2017-11-10T00:40:13.955Z,22.1
2017-11-10T00:41:22.042Z,22.1
2017-11-10T00:42:30.136Z,22.1
2017-11-10T00:43:38.217Z,22.1
2017-11-10T00:44:46.304Z,22.1
2017-11-10T00:45:54.388Z,22.2
2017-11-10T00:47:02.476Z,22.1
2017-11-10T00:48:10.561Z,22.1
2017-11-10T00:49:18.808Z,22.1
2017-11-10T00:50:26.894Z,22.1
2017-11-10T00:51:34.981Z,22.1
2017-11-10T00:52:43.067Z,22.1
2017-11-10T00:53:51.158Z,22.1
2017-11-10T00:54:59.260Z,22.1
2017-11-10T00:56:07.346Z,22.2
2017-11-10T00:57:15.433Z,22.1
2017-11-10T00:58:23.536Z,22.1
2017-11-10T00:59:31.605Z,22.1
2017-11-10T01:00:39.696Z,22.1
2017-11-10T01:01:47.781Z,22.2
2017-11-10T01:02:55.866Z,22.0
2017-11-10T01:04:03.954Z,22.1
2017-11-10T01:05:12.042Z,22.1
2017-11-10T01:06:20.126Z,22.1
2017-11-10T01:07:28.213Z,22.2
2017-11-10T01:08:36.299Z,22.1
2017-11-10T01:09:44.391Z,22.1
2017-11-10T01:10:52.472Z,22.1
2017-11-10T01:12:00.559Z,22.2
2017-11-10T01:13:08.645Z,22.1
2017-11-10T01:14:16.729Z,22.1
2017-11-10T01:15:24.815Z,22.1
2017-11-10T01:16:32.910Z,22.1
2017-11-10T01:17:41.017Z,22.1
2017-11-10T01:18:49.105Z,22.1
2017-11-10T01:19:57.192Z,22.1
2017-11-10T01:21:05.280Z,22.1
2017-11-10T01:22:13.367Z,22.1
2017-11-10T01:23:21.476Z,22.0
2017-11-10T01:24:29.552Z,22.1
2017-11-10T01:25:37.637Z,22.1
2017-11-10T01:26:45.723Z,22.0
2017-11-10T01:27:53.809Z,22.1
2017-11-10T01:29:01.896Z,22.0
2017-11-10T01:30:10.084Z,22.0
2017-11-10T01:31:18.171Z,22.0
2017-11-10T01:32:26.258Z,22.1
2017-11-10T01:33:34.346Z,21.9
2017-11-10T01:34:42.432Z,21.9
2017-11-10T01:35:50.518Z,22.0
2017-11-10T01:36:58.604Z,22.1
2017-11-10T01:38:06.709Z,21.9
2017-11-10T01:39:14.797Z,22.0
2017-11-10T01:40:22.885Z,22.0
2017-11-10T01:41:30.982Z,21.9
2017-11-10T01:42:39.067Z,21.9
2017-11-10T01:43:47.154Z,22.0
2017-11-10T01:44:55.239Z,22.0
2017-11-10T01:46:03.347Z,22.0
2017-11-10T01:47:11.413Z,21.9
2017-11-10T01:48:19.500Z,21.9
2017-11-10T01:49:27.584Z,21.9
2017-11-10T01:50:35.675Z,22.0
2017-11-10T01:51:43.760Z,21.9
2017-11-10T01:52:51.857Z,22.0
2017-11-10T01:53:59.941Z,21.9
2017-11-10T01:55:08.038Z,21.9
2017-11-10T01:56:16.118Z,21.9
2017-11-10T01:57:24.204Z,21.9
2017-11-10T01:58:32.292Z,21.8
2017-11-10T01:59:40.384Z,21.9
2017-11-10T02:00:48.462Z,21.9
2017-11-10T02:01:56.547Z,21.9
2017-11-10T02:03:04.651Z,21.8
2017-11-10T02:04:12.720Z,21.9
2017-11-10T02:05:20.884Z,21.8
2017-11-10T02:06:28.894Z,21.8
2017-11-10T02:07:36.981Z,21.8
2017-11-10T02:08:45.066Z,21.8
2017-11-10T02:09:53.155Z,21.8
2017-11-10T02:11:01.236Z,21.8
2017-11-10T02:12:09.325Z,21.7
2017-11-10T02:13:17.412Z,21.8
2017-11-10T02:14:25.522Z,21.8
2017-11-10T02:15:33.585Z,21.8
2017-11-10T02:16:41.673Z,21.8
2017-11-10T02:17:49.766Z,21.7
2017-11-10T02:18:57.845Z,21.7
2017-11-10T02:20:05.937Z,21.7
2017-11-10T02:21:14.028Z,21.8
2017-11-10T02:22:22.110Z,21.7
2017-11-10T02:23:30.211Z,21.8
2017-11-10T02:24:38.292Z,21.7
2017-11-10T02:25:46.382Z,21.7
2017-11-10T02:26:54.464Z,21.7
2017-11-10T02:28:02.550Z,21.7
2017-11-10T02:29:10.638Z,21.7
2017-11-10T02:30:18.725Z,21.7
2017-11-10T02:31:26.830Z,21.7
2017-11-10T02:32:34.910Z,21.7
2017-11-10T02:33:42.998Z,21.7
2017-11-10T02:34:51.088Z,21.6
2017-11-10T02:35:59.172Z,21.7
2017-11-10T02:37:07.257Z,21.6
2017-11-10T02:38:15.345Z,21.6
2017-11-10T02:39:23.436Z,21.6
2017-11-10T02:40:31.528Z,21.7
2017-11-10T02:41:39.613Z,21.6
2017-11-10T02:42:47.700Z,21.6
2017-11-10T02:43:55.788Z,21.7
2017-11-10T02:45:03.873Z,21.6
2017-11-10T02:46:11.963Z,21.7
2017-11-10T02:47:20.051Z,21.6
2017-11-10T02:48:28.144Z,21.6
2017-11-10T02:49:36.224Z,21.6
2017-11-10T02:50:44.319Z,21.6
2017-11-10T02:51:52.407Z,21.5
2017-11-10T02:53:00.495Z,21.7
2017-11-10T02:54:08.577Z,21.6
2017-11-10T02:55:16.684Z,21.7
2017-11-10T02:56:24.755Z,21.5
2017-11-10T02:57:32.847Z,21.6
2017-11-10T02:58:40.949Z,21.6
2017-11-10T02:59:49.032Z,21.5
2017-11-10T03:00:57.117Z,21.6
2017-11-10T03:02:05.207Z,21.5
2017-11-10T03:03:13.292Z,21.5
2017-11-10T03:04:21.376Z,21.5
2017-11-10T03:05:29.462Z,21.5
2017-11-10T03:06:37.548Z,21.4
2017-11-10T03:07:45.651Z,21.5
2017-11-10T03:08:53.770Z,21.5
2017-11-10T03:10:01.804Z,21.4
2017-11-10T03:11:09.895Z,21.5
2017-11-10T03:12:17.979Z,21.5
2017-11-10T03:13:26.065Z,21.4
2017-11-10T03:14:34.155Z,21.4
2017-11-10T03:15:42.239Z,21.4
2017-11-10T03:16:50.399Z,21.4
2017-11-10T03:17:58.464Z,21.4
2017-11-10T03:19:06.550Z,21.4
2017-11-10T03:20:14.637Z,21.4
2017-11-10T03:21:22.723Z,21.4
2017-11-10T03:22:30.808Z,21.3
2017-11-10T03:23:38.893Z,21.3
2017-11-10T03:24:46.981Z,21.4
2017-11-10T03:25:55.069Z,21.3
2017-11-10T03:27:03.153Z,21.4
2017-11-10T03:28:11.240Z,21.4
2017-11-10T03:29:19.335Z,21.3
2017-11-10T03:30:27.415Z,21.3
2017-11-10T03:31:35.496Z,21.3
2017-11-10T03:32:43.592Z,21.3
2017-11-10T03:33:51.677Z,21.3
2017-11-10T03:34:59.764Z,21.2
2017-11-10T03:36:07.853Z,21.3
2017-11-10T03:37:15.945Z,21.1
2017-11-10T03:38:24.025Z,21.2
2017-11-10T03:39:32.116Z,21.1
2017-11-10T03:40:40.204Z,21.2
2017-11-10T03:41:48.297Z,21.2
2017-11-10T03:42:56.377Z,21.2
2017-11-10T03:44:04.462Z,21.2
2017-11-10T03:45:12.548Z,21.1
2017-11-10T03:46:20.647Z,21.1
2017-11-10T03:47:28.718Z,21.1
2017-11-10T03:48:36.807Z,21.1
2017-11-10T03:49:44.894Z,21.2
2017-11-10T03:50:52.977Z,21.1
2017-11-10T03:52:01.065Z,21.1
2017-11-10T03:53:09.151Z,21.1
2017-11-10T03:54:17.236Z,21.1
2017-11-10T03:55:25.324Z,21.1
2017-11-10T03:56:33.409Z,21.1
2017-11-10T03:57:41.495Z,21.0
2017-11-10T03:58:49.584Z,21.0
2017-11-10T03:59:57.666Z,21.0
2017-11-10T04:01:05.753Z,21.0
2017-11-10T04:02:14.017Z,21.0
2017-11-10T04:03:22.116Z,21.1
2017-11-10T04:04:30.188Z,21.0
2017-11-10T04:05:38.276Z,20.9
2017-11-10T04:06:46.360Z,21.0
2017-11-10T04:07:54.446Z,20.9
2017-11-10T04:09:02.533Z,20.9
2017-11-10T04:10:10.619Z,20.9
2017-11-10T04:11:18.711Z,20.9
2017-11-10T04:12:26.792Z,20.9
2017-11-10T04:13:35.056Z,20.9
2017-11-10T04:14:43.209Z,20.9
2017-11-10T04:15:51.325Z,20.9
2017-11-10T04:16:59.413Z,20.9
2017-11-10T04:18:07.498Z,20.9
2017-11-10T04:19:15.583Z,20.9
2017-11-10T04:20:23.670Z,20.9
2017-11-10T04:21:31.757Z,20.8
2017-11-10T04:22:39.839Z,20.8
2017-11-10T04:23:47.926Z,20.8
2017-11-10T04:24:56.012Z,20.8
2017-11-10T04:26:04.114Z,20.9
2017-11-10T04:27:12.184Z,20.8
2017-11-10T04:28:20.269Z,20.7
2017-11-10T04:29:28.353Z,20.7
2017-11-10T04:30:36.475Z,20.7
2017-11-10T04:31:44.529Z,20.7
2017-11-10T04:32:52.618Z,20.8
2017-11-10T04:34:00.706Z,20.7
2017-11-10T04:35:09.016Z,20.7
2017-11-10T04:36:17.100Z,20.7
2017-11-10T04:37:25.187Z,20.7
2017-11-10T04:38:33.281Z,20.7
2017-11-10T04:39:41.368Z,20.7
2017-11-10T04:40:49.457Z,20.7
2017-11-10T04:41:57.538Z,20.6
2017-11-10T04:43:05.624Z,20.6
2017-11-10T04:44:13.709Z,20.6
2017-11-10T04:45:21.794Z,20.7
2017-11-10T04:46:29.882Z,20.7
2017-11-10T04:47:37.968Z,20.6
2017-11-10T04:48:46.053Z,20.6
2017-11-10T04:49:54.139Z,20.5
2017-11-10T04:51:02.225Z,20.6
2017-11-10T04:52:10.309Z,20.5
2017-11-10T04:53:18.392Z,20.5
2017-11-10T04:54:26.479Z,20.5
2017-11-10T04:55:34.564Z,20.5
2017-11-10T04:56:42.653Z,20.5
2017-11-10T04:57:50.737Z,20.5
2017-11-10T04:58:58.829Z,20.4
2017-11-10T05:00:06.920Z,20.5
2017-11-10T05:01:15.017Z,20.5
2017-11-10T05:02:23.084Z,20.4
2017-11-10T05:03:31.195Z,20.4
2017-11-10T05:04:39.279Z,20.4
2017-11-10T05:05:47.365Z,20.5
2017-11-10T05:06:55.452Z,20.6
2017-11-10T05:08:03.535Z,20.5
2017-11-10T05:09:11.622Z,20.6
2017-11-10T05:10:19.724Z,20.6
2017-11-10T05:11:27.806Z,20.4
2017-11-10T05:12:35.901Z,20.3
2017-11-10T05:13:44.002Z,20.3
2017-11-10T05:14:52.073Z,20.4
2017-11-10T05:16:00.156Z,20.3
2017-11-10T05:17:08.241Z,20.4
2017-11-10T05:18:16.360Z,20.3
2017-11-10T05:19:24.418Z,20.4
2017-11-10T05:20:32.511Z,20.4
2017-11-10T05:21:40.597Z,20.3
2017-11-10T05:22:48.686Z,20.3
2017-11-10T05:23:56.771Z,20.3
2017-11-10T05:25:04.851Z,20.3
2017-11-10T05:26:12.946Z,20.3
2017-11-10T05:27:21.030Z,20.3
2017-11-10T05:28:29.115Z,20.2
2017-11-10T05:29:37.204Z,20.2
2017-11-10T05:30:45.287Z,20.2
2017-11-10T05:31:53.862Z,20.2
2017-11-10T05:33:01.456Z,20.2
2017-11-10T05:34:09.547Z,20.2
2017-11-10T05:35:17.632Z,20.2
2017-11-10T05:36:25.729Z,20.2
2017-11-10T05:37:33.814Z,20.2
2017-11-10T05:38:41.900Z,20.2
2017-11-10T05:39:49.982Z,20.2
2017-11-10T05:40:58.068Z,20.3
2017-11-10T05:42:06.405Z,20.2
2017-11-10T05:43:14.248Z,20.2
2017-11-10T05:44:22.386Z,20.2
2017-11-10T05:45:30.478Z,20.2
2017-11-10T05:46:38.507Z,20.2
2017-11-10T05:47:46.581Z,20.1
2017-11-10T05:48:54.695Z,20.1
2017-11-10T05:50:02.832Z,20.1
2017-11-10T05:51:10.982Z,20.1
2017-11-10T05:52:19.101Z,20.1
2017-11-10T05:53:27.065Z,20.1
2017-11-10T05:54:35.149Z,20.1
2017-11-10T05:55:43.234Z,20.1
2017-11-10T05:56:51.320Z,20.1
2017-11-10T05:57:59.463Z,20.1
2017-11-10T05:59:08.328Z,20.1
2017-11-10T06:00:15.889Z,20.1
2017-11-10T06:01:23.866Z,20.2
2017-11-10T06:02:31.909Z,20.1
2017-11-10T06:03:40.523Z,20.1
2017-11-10T06:04:48.465Z,20.1
2017-11-10T06:05:58.629Z,20.1
2017-11-10T06:07:04.833Z,20.1
2017-11-10T06:08:13.275Z,20.1
2017-11-10T06:09:20.498Z,20.1
2017-11-10T06:10:28.404Z,20.1
2017-11-10T06:11:36.483Z,20.1
2017-11-10T06:12:44.570Z,20.1
2017-11-10T06:13:52.654Z,20.1
2017-11-10T06:15:02.452Z,20.1
2017-11-10T06:16:08.828Z,20.1
2017-11-10T06:17:16.910Z,20.1
2017-11-10T06:18:24.995Z,20.1
2017-11-10T06:19:33.101Z,20.1
2017-11-10T06:20:41.186Z,20.2
2017-11-10T06:21:49.269Z,20.1
2017-11-10T06:22:57.355Z,20.1
2017-11-10T06:24:05.444Z,20.1
2017-11-10T06:25:13.527Z,20.1
2017-11-10T06:26:21.611Z,20.1
2017-11-10T06:27:29.698Z,20.1
2017-11-10T06:28:37.787Z,20.1
2017-11-10T06:29:45.869Z,20.0
2017-11-10T06:30:53.962Z,20.0
2017-11-10T06:32:02.049Z,20.0
2017-11-10T06:33:10.136Z,20.0
2017-11-10T06:34:18.221Z,20.1
2017-11-10T06:35:26.305Z,20.1
2017-11-10T06:36:34.389Z,20.0
2017-11-10T06:37:42.474Z,20.1
2017-11-10T06:38:50.560Z,20.1
2017-11-10T06:39:58.645Z,20.0
2017-11-10T06:41:06.742Z,20.0
2017-11-10T06:42:14.821Z,20.0
2017-11-10T06:43:22.907Z,20.1
2017-11-10T06:44:30.986Z,20.0
2017-11-10T06:45:39.092Z,20.0
2017-11-10T06:46:47.164Z,20.1
2017-11-10T06:47:55.242Z,20.1
2017-11-10T06:49:03.334Z,20.0
2017-11-10T06:50:11.415Z,20.0
2017-11-10T06:51:19.501Z,20.0
2017-11-10T06:52:27.585Z,20.0
2017-11-10T06:53:35.670Z,20.1
2017-11-10T06:54:43.757Z,20.0
2017-11-10T06:55:51.842Z,20.1
2017-11-10T06:56:59.927Z,20.1
2017-11-10T06:58:08.010Z,20.0
2017-11-10T06:59:16.095Z,20.0
2017-11-10T07:00:24.190Z,20.1
2017-11-10T07:01:32.267Z,20.0
2017-11-10T07:02:40.354Z,20.0
2017-11-10T07:03:48.438Z,20.1
2017-11-10T07:04:56.526Z,20.1
2017-11-10T07:06:04.626Z,20.1
2017-11-10T07:07:12.696Z,20.1
2017-11-10T07:08:20.802Z,20.1
2017-11-10T07:09:28.864Z,20.1
2017-11-10T07:10:36.950Z,20.1
2017-11-10T07:11:45.051Z,20.1
2017-11-10T07:12:53.127Z,20.1
2017-11-10T07:14:01.214Z,20.1
2017-11-10T07:15:09.304Z,20.1
2017-11-10T07:16:17.382Z,20.1
2017-11-10T07:17:25.466Z,20.1
2017-11-10T07:18:33.554Z,20.2
2017-11-10T07:19:41.641Z,20.1
2017-11-10T07:20:49.725Z,20.1
2017-11-10T07:21:57.815Z,20.1
2017-11-10T07:23:05.911Z,20.1
2017-11-10T07:24:13.995Z,20.1
2017-11-10T07:25:22.081Z,20.1
2017-11-10T07:26:30.166Z,20.1
2017-11-10T07:27:38.253Z,20.1
2017-11-10T07:28:46.337Z,20.1
2017-11-10T07:29:54.432Z,20.1
2017-11-10T07:31:02.507Z,20.1
2017-11-10T07:32:10.631Z,20.2
2017-11-10T07:33:18.678Z,20.1
2017-11-10T07:34:26.771Z,20.1
2017-11-10T07:35:34.859Z,20.1
2017-11-10T07:36:42.940Z,20.1
2017-11-10T07:37:51.084Z,20.2
2017-11-10T07:38:59.110Z,20.1
2017-11-10T07:40:07.196Z,20.1
2017-11-10T07:41:15.279Z,20.1
2017-11-10T07:42:23.372Z,20.2
2017-11-10T07:43:31.451Z,20.1
2017-11-10T07:44:39.537Z,20.2
2017-11-10T07:45:47.623Z,20.2
2017-11-10T07:46:55.719Z,20.2
2017-11-10T07:48:03.792Z,20.2
2017-11-10T07:49:11.883Z,20.2
2017-11-10T07:50:19.964Z,20.1
2017-11-10T07:51:28.054Z,20.1
2017-11-10T07:52:36.140Z,20.2
2017-11-10T07:53:44.228Z,20.2
2017-11-10T07:54:52.311Z,20.1
2017-11-10T07:56:00.396Z,20.2
2017-11-10T07:57:08.503Z,20.2
2017-11-10T07:58:16.590Z,20.2
2017-11-10T07:59:24.673Z,20.1
2017-11-10T08:00:32.761Z,20.2
2017-11-10T08:01:40.846Z,20.1
2017-11-10T08:02:48.931Z,20.1
2017-11-10T08:03:57.017Z,20.2
2017-11-10T08:05:05.100Z,20.2
2017-11-10T08:06:13.186Z,20.2
2017-11-10T08:07:21.271Z,20.2
2017-11-10T08:08:29.354Z,20.3
2017-11-10T08:09:37.445Z,20.2
2017-11-10T08:10:45.529Z,20.3
2017-11-10T08:11:53.614Z,20.2
2017-11-10T08:13:01.699Z,20.2
2017-11-10T08:14:09.782Z,20.3
2017-11-10T08:15:17.869Z,20.2
2017-11-10T08:16:25.983Z,20.2
2017-11-10T08:17:34.061Z,20.2
2017-11-10T08:18:42.125Z,20.3
2017-11-10T08:19:50.210Z,20.2
2017-11-10T08:20:58.294Z,20.2
2017-11-10T08:22:06.393Z,20.1
2017-11-10T08:23:14.467Z,20.2
2017-11-10T08:24:22.613Z,20.2
2017-11-10T08:25:30.639Z,20.2
2017-11-10T08:26:38.721Z,20.1
2017-11-10T08:27:46.815Z,20.1
2017-11-10T08:28:54.902Z,20.2
2017-11-10T08:30:03.000Z,20.2
2017-11-10T08:31:11.073Z,20.3
2017-11-10T08:32:19.158Z,20.2
2017-11-10T08:33:27.245Z,20.2
2017-11-10T08:34:35.328Z,20.2
2017-11-10T08:35:43.412Z,20.2
2017-11-10T08:36:51.619Z,20.2
2017-11-10T08:37:59.700Z,20.2
2017-11-10T08:39:07.785Z,20.2
2017-11-10T08:40:15.872Z,20.2
2017-11-10T08:41:23.957Z,20.2
2017-11-10T08:42:32.067Z,20.1
2017-11-10T08:43:40.132Z,20.1
2017-11-10T08:44:48.217Z,20.2
2017-11-10T08:45:56.298Z,20.1
2017-11-10T08:47:04.391Z,20.1
2017-11-10T08:48:12.466Z,20.3
2017-11-10T08:49:20.555Z,20.2
2017-11-10T08:50:28.641Z,20.2
2017-11-10T08:51:36.726Z,20.1
2017-11-10T08:52:44.812Z,20.1
2017-11-10T08:53:52.913Z,20.1
2017-11-10T08:55:00.995Z,20.1
2017-11-10T08:56:09.069Z,20.1
2017-11-10T08:57:17.155Z,20.1
2017-11-10T08:58:25.238Z,20.2
2017-11-10T08:59:33.325Z,20.2
2017-11-10T09:00:41.428Z,20.1
2017-11-10T09:01:49.496Z,20.1
2017-11-10T09:02:57.582Z,20.1
2017-11-10T09:04:05.664Z,20.1
2017-11-10T09:05:13.750Z,20.1
2017-11-10T09:06:21.836Z,20.1
2017-11-10T09:07:29.921Z,20.1
2017-11-10T09:08:38.006Z,20.1
2017-11-10T09:09:46.093Z,20.1
2017-11-10T09:10:54.310Z,20.1
2017-11-10T09:12:02.394Z,20.1
2017-11-10T09:13:10.480Z,20.1
2017-11-10T09:14:18.564Z,20.1
2017-11-10T09:15:26.660Z,20.1
2017-11-10T09:16:34.741Z,20.1
2017-11-10T09:17:42.820Z,20.1
2017-11-10T09:18:50.907Z,20.1
2017-11-10T09:19:59.003Z,20.1
2017-11-10T09:21:07.086Z,20.1
2017-11-10T09:22:15.182Z,20.1
2017-11-10T09:23:23.294Z,20.1
2017-11-10T09:24:31.341Z,20.0
2017-11-10T09:25:39.579Z,20.1
2017-11-10T09:26:47.668Z,20.1
2017-11-10T09:27:55.749Z,20.0
2017-11-10T09:29:03.840Z,19.9
2017-11-10T09:30:11.920Z,20.1
2017-11-10T09:31:20.006Z,20.0
2017-11-10T09:32:28.091Z,20.0
2017-11-10T09:33:36.177Z,20.0
2017-11-10T09:34:44.261Z,20.0
2017-11-10T09:35:52.347Z,20.1
2017-11-10T09:37:00.431Z,20.0
2017-11-10T09:38:08.516Z,20.0
2017-11-10T09:39:16.602Z,19.9
2017-11-10T09:40:24.723Z,20.0
2017-11-10T09:41:32.796Z,19.9
2017-11-10T09:42:40.924Z,20.0
2017-11-10T09:43:48.965Z,20.0
2017-11-10T09:44:57.058Z,20.0
2017-11-10T09:46:05.136Z,20.0
2017-11-10T09:47:13.225Z,20.0
2017-11-10T09:48:21.309Z,19.9
2017-11-10T09:49:29.407Z,19.9
2017-11-10T09:50:37.492Z,19.9
2017-11-10T09:51:45.565Z,20.0
2017-11-10T09:52:53.649Z,19.9
2017-11-10T09:54:01.735Z,19.9
2017-11-10T09:55:09.820Z,20.0
2017-11-10T09:56:17.905Z,19.9
2017-11-10T09:57:25.992Z,19.9
2017-11-10T09:58:34.082Z,19.9
2017-11-10T09:59:42.161Z,19.9
2017-11-10T10:00:50.254Z,19.9
2017-11-10T10:01:58.330Z,19.9
2017-11-10T10:03:06.416Z,19.9
2017-11-10T10:04:14.579Z,19.9
2017-11-10T10:05:22.586Z,19.9
2017-11-10T10:06:30.686Z,19.8
2017-11-10T10:07:38.759Z,19.9
2017-11-10T10:08:46.844Z,19.8
2017-11-10T10:09:54.935Z,19.8
2017-11-10T10:11:03.026Z,19.8
2017-11-10T10:12:11.103Z,19.8
2017-11-10T10:13:19.199Z,19.8
2017-11-10T10:14:27.280Z,19.9
2017-11-10T10:15:35.363Z,19.8
2017-11-10T10:16:43.446Z,19.8
2017-11-10T10:17:51.534Z,19.8
2017-11-10T10:18:59.620Z,19.8
2017-11-10T10:20:07.705Z,19.8
2017-11-10T10:21:15.790Z,19.8
2017-11-10T10:22:23.883Z,19.7
2017-11-10T10:23:31.972Z,19.7
2017-11-10T10:24:40.061Z,19.8
2017-11-10T10:25:48.149Z,19.7
2017-11-10T10:26:56.222Z,19.7
2017-11-10T10:28:04.308Z,19.7
2017-11-10T10:29:12.404Z,19.7
2017-11-10T10:30:20.481Z,19.7
2017-11-10T10:31:28.566Z,19.7
2017-11-10T10:32:36.650Z,19.7
2017-11-10T10:33:44.735Z,19.7
2017-11-10T10:34:52.819Z,19.7
2017-11-10T10:36:00.921Z,19.7
2017-11-10T10:37:09.028Z,19.7
2017-11-10T10:38:17.074Z,19.7
2017-11-10T10:39:25.160Z,19.7
2017-11-10T10:40:33.244Z,19.8
2017-11-10T10:41:41.329Z,19.7
2017-11-10T10:42:49.414Z,19.7
2017-11-10T10:43:57.500Z,19.7
2017-11-10T10:45:05.584Z,19.6
2017-11-10T10:46:13.668Z,19.6
2017-11-10T10:47:21.755Z,19.6
2017-11-10T10:48:29.840Z,19.7
2017-11-10T10:49:37.930Z,19.7
2017-11-10T10:50:46.010Z,19.6
2017-11-10T10:51:54.095Z,19.6
2017-11-10T10:53:02.189Z,19.6
2017-11-10T10:54:10.269Z,19.6
2017-11-10T10:55:18.355Z,19.6
2017-11-10T10:56:26.432Z,19.7
2017-11-10T10:57:34.517Z,19.5
2017-11-10T10:58:42.603Z,19.6
2017-11-10T10:59:50.692Z,19.6
2017-11-10T11:00:58.775Z,19.5
2017-11-10T11:02:07.150Z,19.6
2017-11-10T11:03:15.233Z,19.5
2017-11-10T11:04:23.539Z,19.5
2017-11-10T11:05:31.628Z,19.5
2017-11-10T11:06:39.705Z,19.6
2017-11-10T11:07:47.787Z,19.6
2017-11-10T11:08:55.873Z,19.6
2017-11-10T11:10:03.956Z,19.5
2017-11-10T11:11:12.043Z,19.6
2017-11-10T11:12:20.126Z,19.5
2017-11-10T11:13:28.213Z,19.6
2017-11-10T11:14:36.298Z,19.6
2017-11-10T11:15:44.379Z,19.5
2017-11-10T11:16:52.466Z,19.5
2017-11-10T11:18:00.558Z,19.5
2017-11-10T11:19:08.633Z,19.4
2017-11-10T11:20:16.720Z,19.5
2017-11-10T11:21:24.824Z,19.5
2017-11-10T11:22:32.890Z,19.4
2017-11-10T11:23:40.974Z,19.4
2017-11-10T11:24:49.058Z,19.4
2017-11-10T11:25:57.143Z,19.4
2017-11-10T11:27:05.227Z,19.4
2017-11-10T11:28:13.312Z,19.4
2017-11-10T11:29:21.397Z,19.5
2017-11-10T11:30:29.481Z,19.4
2017-11-10T11:31:37.565Z,19.4
2017-11-10T11:32:45.649Z,19.4
2017-11-10T11:33:53.771Z,19.4
2017-11-10T11:35:01.825Z,19.4
2017-11-10T11:36:09.902Z,19.4
2017-11-10T11:37:17.989Z,19.3
2017-11-10T11:38:26.070Z,19.3
2017-11-10T11:39:34.156Z,19.3
2017-11-10T11:40:42.241Z,19.4
2017-11-10T11:41:50.326Z,19.3
2017-11-10T11:42:58.411Z,19.3
2017-11-10T11:44:06.496Z,19.2
2017-11-10T11:45:14.578Z,19.2
2017-11-10T11:46:22.779Z,19.4
2017-11-10T11:47:30.747Z,19.2
2017-11-10T11:48:38.828Z,19.3
2017-11-10T11:49:46.927Z,19.2
2017-11-10T11:50:55.000Z,19.3
2017-11-10T11:52:03.089Z,19.3
2017-11-10T11:53:11.174Z,19.3
2017-11-10T11:54:19.254Z,19.3
2017-11-10T11:55:27.340Z,19.2
2017-11-10T11:56:35.422Z,19.2
2017-11-10T11:57:43.510Z,19.3
2017-11-10T11:58:51.594Z,19.2
2017-11-10T11:59:59.679Z,19.2
2017-11-10T12:01:07.763Z,19.1
2017-11-10T12:02:15.858Z,19.2
2017-11-10T12:03:23.943Z,19.2
2017-11-10T12:04:32.026Z,19.2
2017-11-10T12:05:40.125Z,19.1
2017-11-10T12:06:48.193Z,19.2
2017-11-10T12:07:56.276Z,19.1
2017-11-10T12:09:04.365Z,19.1
2017-11-10T12:10:12.445Z,19.1
2017-11-10T12:11:20.531Z,19.1
2017-11-10T12:12:28.621Z,19.1
2017-11-10T12:13:36.704Z,19.1
2017-11-10T12:14:44.788Z,19.0
2017-11-10T12:15:52.874Z,19.1
2017-11-10T12:17:00.957Z,19.1
2017-11-10T12:18:09.043Z,19.0
2017-11-10T12:19:17.125Z,19.1
2017-11-10T12:20:25.210Z,19.0
2017-11-10T12:21:33.297Z,19.1
2017-11-10T12:22:41.380Z,19.0
2017-11-10T12:23:49.464Z,18.9
2017-11-10T12:24:57.547Z,18.9
2017-11-10T12:26:05.631Z,18.9
2017-11-10T12:27:13.716Z,19.0
2017-11-10T12:28:21.813Z,19.0
2017-11-10T12:29:29.900Z,18.9
2017-11-10T12:30:37.982Z,19.0
2017-11-10T12:31:46.066Z,18.9
2017-11-10T12:32:54.158Z,18.9
2017-11-10T12:34:02.236Z,18.9
2017-11-10T12:35:10.319Z,19.0
2017-11-10T12:36:18.403Z,19.0
2017-11-10T12:37:26.488Z,18.9
2017-11-10T12:38:34.574Z,19.0
2017-11-10T12:39:42.655Z,18.8
2017-11-10T12:40:50.741Z,18.8
2017-11-10T12:41:58.823Z,18.8
2017-11-10T12:43:06.905Z,18.9
2017-11-10T12:44:14.991Z,18.8
2017-11-10T12:45:23.079Z,18.8
2017-11-10T12:46:31.172Z,18.9
2017-11-10T12:47:39.253Z,18.8
2017-11-10T12:48:47.341Z,18.8
2017-11-10T12:49:55.423Z,18.8
2017-11-10T12:51:03.513Z,18.8
2017-11-10T12:52:11.590Z,18.7
2017-11-10T12:53:19.689Z,18.7
2017-11-10T12:54:27.768Z,18.8
2017-11-10T12:55:35.858Z,18.7
2017-11-10T12:56:43.944Z,18.8
2017-11-10T12:57:52.027Z,18.7
2017-11-10T12:59:00.127Z,18.7
2017-11-10T13:00:08.213Z,18.8
2017-11-10T13:01:16.291Z,18.7
2017-11-10T13:02:24.381Z,18.8
2017-11-10T13:03:32.456Z,18.7
2017-11-10T13:04:40.566Z,18.7
2017-11-10T13:05:48.631Z,18.7
2017-11-10T13:06:56.713Z,18.7
2017-11-10T13:08:04.798Z,18.7
2017-11-10T13:09:12.882Z,18.7
2017-11-10T13:10:20.974Z,18.7
2017-11-10T13:11:29.053Z,18.7
2017-11-10T13:12:37.134Z,18.6
2017-11-10T13:13:45.218Z,18.7
2017-11-10T13:14:53.302Z,18.6
2017-11-10T13:16:01.386Z,18.6
2017-11-10T13:17:09.470Z,18.6
2017-11-10T13:18:17.555Z,18.6
2017-11-10T13:19:25.640Z,18.6
2017-11-10T13:20:33.726Z,18.6
2017-11-10T13:21:41.814Z,18.5
2017-11-10T13:22:49.899Z,18.6
2017-11-10T13:23:57.991Z,18.5
2017-11-10T13:25:06.068Z,18.5
2017-11-10T13:26:14.169Z,18.6
2017-11-10T13:27:22.247Z,18.6
2017-11-10T13:28:30.332Z,18.5
2017-11-10T13:29:38.418Z,18.5
2017-11-10T13:30:46.499Z,18.5
2017-11-10T13:31:54.585Z,18.5
2017-11-10T13:33:02.668Z,18.5
2017-11-10T13:34:10.752Z,18.5
2017-11-10T13:35:18.835Z,18.5
2017-11-10T13:36:26.919Z,18.5
2017-11-10T13:37:35.006Z,18.4
2017-11-10T13:38:43.085Z,18.4
2017-11-10T13:39:51.171Z,18.4
2017-11-10T13:40:59.254Z,18.4
2017-11-10T13:42:07.339Z,18.4
2017-11-10T13:43:15.438Z,18.4
2017-11-10T13:44:23.505Z,18.4
2017-11-10T13:45:31.589Z,18.4
2017-11-10T13:46:39.671Z,18.4
2017-11-10T13:47:47.759Z,18.4
2017-11-10T13:48:55.844Z,18.4
2017-11-10T13:50:03.933Z,18.4
2017-11-10T13:51:12.017Z,18.3
2017-11-10T13:52:20.101Z,18.3
2017-11-10T13:53:28.183Z,18.4
2017-11-10T13:54:36.268Z,18.3
2017-11-10T13:55:44.351Z,18.3
2017-11-10T13:56:52.436Z,18.3
2017-11-10T13:58:00.517Z,18.3
2017-11-10T13:59:08.602Z,18.3
2017-11-10T14:00:16.695Z,18.3
2017-11-10T14:01:24.778Z,18.3
2017-11-10T14:02:32.855Z,18.3
2017-11-10T14:03:40.937Z,18.2
2017-11-10T14:04:49.020Z,18.2
2017-11-10T14:05:57.129Z,18.1
2017-11-10T14:07:05.209Z,18.2
2017-11-10T14:08:13.293Z,18.2
2017-11-10T14:09:21.378Z,18.1
2017-11-10T14:10:29.459Z,18.3
2017-11-10T14:11:37.549Z,18.2
2017-11-10T14:12:45.627Z,18.2
2017-11-10T14:13:53.713Z,18.3
2017-11-10T14:15:01.805Z,18.2
2017-11-10T14:16:09.889Z,18.2
2017-11-10T14:17:17.969Z,18.2
2017-11-10T14:18:26.052Z,18.2
2017-11-10T14:19:34.134Z,18.2
2017-11-10T14:20:42.220Z,18.1
2017-11-10T14:21:50.302Z,18.1
2017-11-10T14:22:58.386Z,18.1
2017-11-10T14:24:06.471Z,18.1
2017-11-10T14:25:14.553Z,18.2
2017-11-10T14:26:22.639Z,18.1
2017-11-10T14:27:30.722Z,18.1
2017-11-10T14:28:38.823Z,18.1
2017-11-10T14:29:46.887Z,18.1
2017-11-10T14:30:54.974Z,18.1
2017-11-10T14:32:03.055Z,18.1
2017-11-10T14:33:11.138Z,18.1
2017-11-10T14:34:19.223Z,18.0
2017-11-10T14:35:27.305Z,18.0
2017-11-10T14:36:35.389Z,18.0
2017-11-10T14:37:43.471Z,18.1
2017-11-10T14:38:51.554Z,18.0
2017-11-10T14:39:59.640Z,18.0
2017-11-10T14:41:07.722Z,18.0
2017-11-10T14:42:15.807Z,18.0
2017-11-10T14:43:23.890Z,18.0
2017-11-10T14:44:31.972Z,18.0
2017-11-10T14:45:40.057Z,18.0
2017-11-10T14:46:48.141Z,18.0
2017-11-10T14:47:56.226Z,18.0
2017-11-10T14:49:04.306Z,18.0
2017-11-10T14:50:12.398Z,18.0
2017-11-10T14:51:20.474Z,18.0
2017-11-10T14:52:28.557Z,18.0
2017-11-10T14:53:36.641Z,18.0
2017-11-10T14:54:44.730Z,18.0
2017-11-10T14:55:52.812Z,17.9
2017-11-10T14:57:00.896Z,18.0
2017-11-10T14:58:08.977Z,17.9
2017-11-10T14:59:17.061Z,17.9
2017-11-10T15:00:25.152Z,17.9
2017-11-10T15:01:33.234Z,17.9
2017-11-10T15:02:41.322Z,17.9
2017-11-10T15:03:49.432Z,17.9
2017-11-10T15:04:57.494Z,17.9
2017-11-10T15:06:05.583Z,17.9